createdAt,value
2017-08-29T00:00:01.958Z,89.25
2017-08-29T00:02:30.431Z,89.04
2017-08-29T00:04:58.912Z,88.83
2017-08-29T00:07:27.360Z,89.51
2017-08-29T00:09:55.881Z,89.09
2017-08-29T00:12:24.338Z,88.95
2017-08-29T00:14:52.775Z,89.42
2017-08-29T00:17:21.330Z,89.54
2017-08-29T00:19:49.819Z,89.31
2017-08-29T00:22:18.280Z,89.53
2017-08-29T00:24:46.777Z,89.60
2017-08-29T00:27:15.252Z,89.58
2017-08-29T00:29:43.728Z,89.14
2017-08-29T00:32:12.194Z,89.81
2017-08-29T00:34:40.703Z,89.65
2017-08-29T00:37:09.192Z,88.92
2017-08-29T00:39:37.670Z,89.20
2017-08-29T00:42:06.142Z,89.82
2017-08-29T00:44:34.623Z,89.77
2017-08-29T00:47:03.104Z,88.97
2017-08-29T00:49:31.588Z,89.93
2017-08-29T00:52:00.077Z,90.03
2017-08-29T00:54:28.559Z,89.98
2017-08-29T00:56:57.047Z,89.99
2017-08-29T00:59:25.719Z,90.13
2017-08-29T01:01:54.209Z,89.32
2017-08-29T01:04:22.679Z,89.21
2017-08-29T01:06:51.112Z,89.75
2017-08-29T01:09:19.565Z,90.27
2017-08-29T01:11:48.040Z,90.25
2017-08-29T01:14:16.512Z,89.99
2017-08-29T01:16:44.992Z,90.04
2017-08-29T01:19:13.483Z,90.24
2017-08-29T01:21:41.956Z,89.76
2017-08-29T01:24:10.441Z,90.41
2017-08-29T01:26:38.877Z,89.59
2017-08-29T01:29:07.328Z,89.82
2017-08-29T01:31:35.775Z,89.00
2017-08-29T01:34:04.221Z,88.71
2017-08-29T01:36:32.745Z,89.41
2017-08-29T01:39:01.329Z,89.16
2017-08-29T01:41:29.822Z,89.11
2017-08-29T01:43:58.252Z,89.22
2017-08-29T01:46:26.787Z,89.47
2017-08-29T01:48:55.256Z,89.41
2017-08-29T01:51:23.749Z,89.61
2017-08-29T01:53:52.215Z,88.92
2017-08-29T01:56:20.675Z,89.20
2017-08-29T01:58:49.196Z,88.22
2017-08-29T02:01:17.668Z,88.23
2017-08-29T02:03:46.140Z,87.97
2017-08-29T02:06:14.619Z,88.82
2017-08-29T02:08:43.108Z,89.36
2017-08-29T02:11:11.596Z,89.60
2017-08-29T02:13:40.063Z,89.26
2017-08-29T02:16:08.512Z,89.23
2017-08-29T02:18:36.948Z,89.40
2017-08-29T02:21:05.399Z,89.56
2017-08-29T02:23:33.837Z,89.87
2017-08-29T02:26:02.286Z,91.09
2017-08-29T02:28:30.760Z,91.11
2017-08-29T02:30:59.334Z,91.16
2017-08-29T02:33:27.824Z,91.45
2017-08-29T02:35:56.318Z,91.32
2017-08-29T02:38:24.758Z,91.02
2017-08-29T02:40:53.202Z,90.43
2017-08-29T02:43:21.753Z,90.56
2017-08-29T02:45:50.245Z,90.51
2017-08-29T02:48:18.737Z,90.17
2017-08-29T02:50:47.200Z,89.98
2017-08-29T02:53:15.691Z,90.80
2017-08-29T02:55:44.169Z,90.19
2017-08-29T02:58:12.641Z,90.01
2017-08-29T03:00:41.063Z,91.24
2017-08-29T03:03:09.523Z,91.46
2017-08-29T03:05:37.951Z,91.65
2017-08-29T03:08:06.474Z,91.67
2017-08-29T03:10:34.962Z,91.88
2017-08-29T03:13:03.434Z,91.64
2017-08-29T03:15:31.859Z,91.13
2017-08-29T03:18:00.407Z,91.21
2017-08-29T03:20:28.856Z,91.40
2017-08-29T03:22:57.302Z,90.48
2017-08-29T03:25:25.844Z,91.44
2017-08-29T03:27:54.272Z,91.35
2017-08-29T03:30:22.799Z,91.26
2017-08-29T03:32:51.288Z,91.15
2017-08-29T03:35:19.776Z,91.12
2017-08-29T03:37:48.270Z,91.32
2017-08-29T03:40:16.815Z,91.22
2017-08-29T03:42:45.325Z,91.34
2017-08-29T03:45:13.791Z,91.55
2017-08-29T03:47:42.279Z,92.09
2017-08-29T03:50:10.758Z,91.93
2017-08-29T03:52:39.266Z,91.87
2017-08-29T03:55:07.746Z,91.17
2017-08-29T03:57:36.222Z,91.11
2017-08-29T04:00:04.692Z,91.45
2017-08-29T04:02:33.177Z,91.64
2017-08-29T04:05:01.629Z,91.85
2017-08-29T04:07:30.140Z,91.54
2017-08-29T04:09:58.624Z,91.56
2017-08-29T04:12:27.117Z,91.45
2017-08-29T04:14:55.587Z,91.09
2017-08-29T04:17:24.054Z,91.67
2017-08-29T04:19:52.539Z,91.77
2017-08-29T04:22:21.046Z,92.14
2017-08-29T04:24:49.521Z,92.08
2017-08-29T04:27:17.981Z,91.91
2017-08-29T04:29:46.407Z,91.79
2017-08-29T04:32:14.964Z,91.47
2017-08-29T04:34:43.452Z,91.36
2017-08-29T04:37:11.905Z,91.02
2017-08-29T04:39:40.420Z,90.91
2017-08-29T04:42:08.888Z,90.77
2017-08-29T04:44:37.334Z,90.50
2017-08-29T04:47:05.847Z,90.10
2017-08-29T04:49:34.327Z,90.29
2017-08-29T04:52:02.798Z,89.75
2017-08-29T04:54:31.306Z,89.92
2017-08-29T04:56:59.752Z,89.64
2017-08-29T04:59:28.255Z,89.50
2017-08-29T05:01:56.744Z,89.53
2017-08-29T05:04:25.173Z,89.11
2017-08-29T05:06:53.624Z,88.92
2017-08-29T05:09:22.070Z,88.83
2017-08-29T05:11:50.523Z,88.37
2017-08-29T05:14:19.048Z,88.42
2017-08-29T05:16:47.524Z,88.32
2017-08-29T05:19:16.012Z,87.83
2017-08-29T05:21:44.487Z,87.90
2017-08-29T05:24:12.979Z,87.60
2017-08-29T05:26:41.412Z,87.65
2017-08-29T05:29:09.868Z,87.28
2017-08-29T05:31:38.324Z,87.27
2017-08-29T05:34:06.792Z,86.93
2017-08-29T05:36:35.296Z,86.50
2017-08-29T05:39:03.761Z,86.69
2017-08-29T05:41:32.192Z,86.32
2017-08-29T05:44:00.722Z,86.46
2017-08-29T05:46:29.142Z,85.78
2017-08-29T05:48:57.701Z,85.08
2017-08-29T05:51:26.176Z,84.99
2017-08-29T05:53:54.636Z,84.27
2017-08-29T05:56:23.139Z,83.07
2017-08-29T05:58:51.620Z,82.99
2017-08-29T06:01:20.145Z,82.69
2017-08-29T06:03:48.662Z,81.86
2017-08-29T06:06:17.179Z,80.99
2017-08-29T06:08:45.656Z,81.10
2017-08-29T06:11:14.101Z,80.52
2017-08-29T06:13:42.626Z,79.93
2017-08-29T06:16:11.051Z,79.11
2017-08-29T06:18:39.496Z,78.84
2017-08-29T06:21:07.919Z,78.39
2017-08-29T06:23:36.366Z,78.04
2017-08-29T06:26:04.831Z,76.97
2017-08-29T06:28:33.361Z,77.28
2017-08-29T06:31:01.812Z,76.70
2017-08-29T06:33:30.230Z,76.73
2017-08-29T06:35:58.676Z,76.59
2017-08-29T06:38:27.128Z,75.58
2017-08-29T06:40:55.607Z,75.35
2017-08-29T06:43:24.048Z,74.46
2017-08-29T06:45:52.576Z,74.05
2017-08-29T06:48:21.055Z,73.27
2017-08-29T06:50:49.547Z,73.60
2017-08-29T06:53:18.019Z,72.50
2017-08-29T06:55:46.485Z,72.81
2017-08-29T06:58:14.920Z,72.44
2017-08-29T07:00:43.349Z,72.10
2017-08-29T07:03:11.859Z,71.58
2017-08-29T07:05:40.339Z,71.45
2017-08-29T07:08:08.844Z,71.01
2017-08-29T07:10:37.391Z,70.51
2017-08-29T07:13:05.819Z,70.37
2017-08-29T07:15:34.286Z,70.07
2017-08-29T07:18:02.721Z,70.21
2017-08-29T07:20:31.214Z,68.91
2017-08-29T07:22:59.654Z,68.87
2017-08-29T07:25:28.113Z,68.68
2017-08-29T07:27:56.681Z,68.11
2017-08-29T07:30:25.132Z,68.20
2017-08-29T07:32:53.619Z,66.73
2017-08-29T07:35:22.078Z,67.80
2017-08-29T07:37:51.319Z,67.34
2017-08-29T07:40:19.772Z,66.21
2017-08-29T07:42:48.272Z,64.25
2017-08-29T07:45:16.855Z,63.67
2017-08-29T07:47:45.294Z,63.69
2017-08-29T07:50:13.745Z,62.30
2017-08-29T07:52:42.315Z,62.75
2017-08-29T07:55:10.739Z,63.09
2017-08-29T07:57:39.189Z,62.48
2017-08-29T08:00:07.642Z,61.68
2017-08-29T08:02:36.336Z,61.39
2017-08-29T08:05:04.826Z,61.15
2017-08-29T08:07:33.300Z,61.78
2017-08-29T08:10:01.720Z,61.76
2017-08-29T08:12:30.250Z,61.45
2017-08-29T08:14:58.680Z,61.40
2017-08-29T08:17:27.231Z,61.11
2017-08-29T08:19:55.654Z,60.57
2017-08-29T08:22:24.108Z,58.84
2017-08-29T08:24:52.573Z,58.35
2017-08-29T08:27:21.033Z,57.91
2017-08-29T08:29:49.464Z,57.89
2017-08-29T08:32:18.021Z,57.09
2017-08-29T08:34:46.440Z,57.64
2017-08-29T08:37:14.901Z,57.85
2017-08-29T08:39:43.361Z,58.10
2017-08-29T08:42:11.840Z,56.43
2017-08-29T08:44:40.320Z,55.67
2017-08-29T08:47:08.804Z,56.61
2017-08-29T08:49:37.283Z,55.75
2017-08-29T08:52:05.778Z,55.85
2017-08-29T08:54:34.223Z,54.66
2017-08-29T08:57:03.437Z,54.45
2017-08-29T08:59:31.927Z,52.59
2017-08-29T09:02:00.422Z,52.69
2017-08-29T09:04:28.852Z,52.18
2017-08-29T09:06:57.367Z,52.08
2017-08-29T09:09:25.811Z,50.44
2017-08-29T09:11:54.240Z,51.38
2017-08-29T09:14:22.730Z,51.37
2017-08-29T09:16:51.160Z,50.36
2017-08-29T09:19:19.675Z,50.25
2017-08-29T09:21:48.108Z,50.75
2017-08-29T09:24:16.556Z,49.95
2017-08-29T09:26:45.018Z,49.98
2017-08-29T09:29:13.519Z,49.96
2017-08-29T09:31:42.003Z,49.79
2017-08-29T09:34:10.475Z,49.99
2017-08-29T09:36:38.951Z,49.03
2017-08-29T09:39:07.431Z,48.87
2017-08-29T09:41:35.910Z,49.44
2017-08-29T09:44:04.413Z,49.37
2017-08-29T09:46:32.858Z,48.44
2017-08-29T09:49:01.378Z,47.39
2017-08-29T09:51:29.848Z,47.06
2017-08-29T09:53:58.296Z,47.48
2017-08-29T09:56:26.807Z,47.39
2017-08-29T09:58:55.252Z,46.08
2017-08-29T10:01:23.773Z,47.03
2017-08-29T10:03:52.253Z,46.71
2017-08-29T10:06:20.689Z,46.81
2017-08-29T10:08:49.123Z,47.24
2017-08-29T10:11:17.581Z,47.25
2017-08-29T10:13:46.090Z,46.31
2017-08-29T10:16:14.564Z,46.44
2017-08-29T10:18:43.054Z,46.33
2017-08-29T10:21:11.538Z,46.55
2017-08-29T10:23:40.008Z,46.66
2017-08-29T10:26:08.487Z,46.62
2017-08-29T10:28:36.908Z,46.46
2017-08-29T10:31:05.460Z,46.50
2017-08-29T10:33:33.947Z,45.97
2017-08-29T10:36:02.429Z,46.68
2017-08-29T10:38:30.857Z,46.71
2017-08-29T10:40:59.391Z,46.35
2017-08-29T10:43:27.864Z,46.04
2017-08-29T10:45:56.312Z,46.17
2017-08-29T10:48:24.748Z,46.58
2017-08-29T10:50:53.198Z,45.88
2017-08-29T10:53:21.682Z,45.52
2017-08-29T10:55:50.125Z,46.05
2017-08-29T10:58:18.655Z,45.61
2017-08-29T11:00:47.115Z,45.45
2017-08-29T11:03:15.558Z,44.41
2017-08-29T11:05:44.104Z,44.99
2017-08-29T11:08:12.583Z,44.51
2017-08-29T11:10:41.073Z,43.75
2017-08-29T11:13:09.554Z,43.62
2017-08-29T11:15:38.027Z,44.30
2017-08-29T11:18:06.481Z,44.74
2017-08-29T11:20:34.988Z,44.47
2017-08-29T11:23:03.440Z,43.60
2017-08-29T11:25:31.868Z,43.69
2017-08-29T11:28:00.315Z,42.76
2017-08-29T11:30:28.740Z,42.63
2017-08-29T11:32:57.183Z,42.58
2017-08-29T11:35:25.622Z,42.57
2017-08-29T11:37:54.077Z,41.99
2017-08-29T11:40:22.513Z,41.90
2017-08-29T11:42:50.961Z,43.00
2017-08-29T11:45:19.393Z,42.87
2017-08-29T11:47:47.856Z,42.81
2017-08-29T11:50:16.294Z,42.74
2017-08-29T11:52:44.754Z,42.93
2017-08-29T11:55:13.199Z,42.86
2017-08-29T11:57:41.657Z,42.71
2017-08-29T12:00:10.076Z,41.96
2017-08-29T12:02:38.520Z,42.62
2017-08-29T12:05:06.959Z,41.62
2017-08-29T12:07:35.413Z,41.77
2017-08-29T12:10:03.849Z,42.32
2017-08-29T12:12:32.267Z,41.31
2017-08-29T12:15:00.767Z,40.80
2017-08-29T12:17:29.190Z,40.73
2017-08-29T12:19:57.652Z,41.37
2017-08-29T12:22:26.101Z,41.01
2017-08-29T12:24:54.545Z,41.29
2017-08-29T12:27:23.090Z,41.09
2017-08-29T12:29:51.574Z,41.28
2017-08-29T12:32:20.055Z,41.50
2017-08-29T12:34:48.515Z,40.39
2017-08-29T12:37:16.962Z,40.75
2017-08-29T12:39:45.492Z,41.00
2017-08-29T12:42:13.987Z,40.63
2017-08-29T12:44:42.445Z,41.18
2017-08-29T12:47:10.885Z,40.73
2017-08-29T12:49:39.338Z,40.71
2017-08-29T12:52:07.805Z,41.00
2017-08-29T12:54:36.275Z,41.63
2017-08-29T12:57:04.770Z,41.05
2017-08-29T12:59:33.222Z,41.15
2017-08-29T13:02:01.660Z,41.38
2017-08-29T13:04:30.103Z,40.74
2017-08-29T13:06:58.593Z,41.17
2017-08-29T13:09:27.072Z,40.93
2017-08-29T13:11:55.504Z,41.07
2017-08-29T13:14:24.042Z,41.69
2017-08-29T13:16:52.486Z,41.15
2017-08-29T13:19:21.117Z,40.97
2017-08-29T13:21:49.536Z,40.91
2017-08-29T13:24:18.080Z,41.17
2017-08-29T13:26:46.521Z,41.48
2017-08-29T13:29:15.028Z,41.36
2017-08-29T13:31:43.507Z,40.98
2017-08-29T13:34:11.944Z,41.42
2017-08-29T13:36:40.392Z,41.49
2017-08-29T13:39:08.838Z,41.85
2017-08-29T13:41:37.327Z,41.20
2017-08-29T13:44:05.821Z,40.68
2017-08-29T13:46:34.281Z,40.79
2017-08-29T13:49:02.790Z,40.59
2017-08-29T13:51:31.235Z,40.96
2017-08-29T13:53:59.674Z,40.63
2017-08-29T13:56:28.233Z,40.98
2017-08-29T13:58:56.660Z,40.47
2017-08-29T14:01:25.192Z,40.22
2017-08-29T14:03:53.672Z,40.71
2017-08-29T14:06:22.165Z,40.86
2017-08-29T14:08:50.631Z,40.06
2017-08-29T14:11:19.120Z,40.43
2017-08-29T14:13:47.568Z,40.48
2017-08-29T14:16:16.085Z,40.90
2017-08-29T14:18:44.565Z,40.54
2017-08-29T14:21:13.009Z,40.38
2017-08-29T14:23:41.537Z,40.19
2017-08-29T14:26:10.002Z,40.42
2017-08-29T14:28:38.491Z,40.41
2017-08-29T14:31:06.933Z,40.71
2017-08-29T14:33:35.386Z,40.76
2017-08-29T14:36:03.826Z,40.75
2017-08-29T14:38:32.285Z,41.28
2017-08-29T14:41:00.804Z,41.11
2017-08-29T14:43:29.265Z,40.88
2017-08-29T14:45:57.705Z,41.40
2017-08-29T14:48:44.059Z,40.82
2017-08-29T14:51:12.493Z,40.88
2017-08-29T14:53:40.944Z,40.97
2017-08-29T14:56:09.409Z,41.27
2017-08-29T14:58:37.857Z,41.08
2017-08-29T15:01:06.368Z,42.59
2017-08-29T15:03:34.852Z,41.65
2017-08-29T15:06:03.286Z,41.16
2017-08-29T15:08:31.817Z,42.04
2017-08-29T15:11:00.295Z,42.07
2017-08-29T15:13:28.724Z,41.04
2017-08-29T15:15:57.270Z,41.41
2017-08-29T15:18:25.758Z,42.17
2017-08-29T15:20:54.203Z,41.88
2017-08-29T15:23:22.709Z,42.45
2017-08-29T15:25:51.169Z,42.38
2017-08-29T15:28:19.663Z,41.64
2017-08-29T15:30:48.107Z,41.26
2017-08-29T15:33:16.650Z,41.57
2017-08-29T15:35:45.095Z,42.05
2017-08-29T15:38:13.523Z,42.27
2017-08-29T15:40:42.071Z,41.64
2017-08-29T15:43:10.490Z,41.59
2017-08-29T15:45:39.053Z,41.31
2017-08-29T15:48:07.540Z,41.80
2017-08-29T15:50:36.001Z,41.62
2017-08-29T15:53:04.499Z,41.97
2017-08-29T15:55:32.931Z,42.13
2017-08-29T15:58:01.472Z,41.93
2017-08-29T16:00:29.894Z,42.15
2017-08-29T16:02:58.410Z,42.00
2017-08-29T16:05:26.901Z,42.11
2017-08-29T16:07:55.349Z,42.25
2017-08-29T16:10:23.860Z,42.55
2017-08-29T16:12:52.334Z,42.57
2017-08-29T16:15:20.833Z,42.59
2017-08-29T16:17:49.289Z,43.36
2017-08-29T16:20:17.724Z,43.55
2017-08-29T16:22:46.269Z,43.05
2017-08-29T16:25:14.768Z,42.92
2017-08-29T16:27:43.253Z,43.06
2017-08-29T16:30:11.693Z,43.27
2017-08-29T16:32:40.205Z,44.11
2017-08-29T16:35:08.639Z,44.14
2017-08-29T16:37:37.095Z,43.10
2017-08-29T16:40:05.554Z,43.37
2017-08-29T16:42:34.027Z,44.09
2017-08-29T16:45:02.448Z,42.41
2017-08-29T16:47:30.886Z,42.44
2017-08-29T16:49:59.372Z,42.11
2017-08-29T16:52:27.856Z,41.89
2017-08-29T16:54:56.286Z,41.77
2017-08-29T16:57:24.835Z,42.26
2017-08-29T16:59:53.289Z,42.17
2017-08-29T17:02:21.787Z,42.27
2017-08-29T17:04:50.229Z,41.67
2017-08-29T17:07:18.736Z,42.05
2017-08-29T17:09:47.201Z,42.06
2017-08-29T17:12:15.716Z,42.42
2017-08-29T17:14:44.168Z,43.14
2017-08-29T17:17:12.613Z,43.51
2017-08-29T17:19:41.163Z,43.50
2017-08-29T17:22:09.596Z,44.33
2017-08-29T17:24:38.060Z,46.56
2017-08-29T17:27:08.136Z,46.63
2017-08-29T17:29:36.617Z,47.28
2017-08-29T17:32:05.095Z,48.39
2017-08-29T17:34:33.580Z,49.08
2017-08-29T17:37:02.060Z,49.28
2017-08-29T17:39:30.699Z,49.64
2017-08-29T17:41:59.125Z,50.87
2017-08-29T17:44:27.592Z,50.55
2017-08-29T17:46:56.015Z,51.22
2017-08-29T17:49:24.567Z,51.21
2017-08-29T17:51:53.060Z,52.52
2017-08-29T17:54:21.530Z,53.53
2017-08-29T17:56:50.016Z,54.04
2017-08-29T17:59:18.608Z,54.09
2017-08-29T18:01:47.084Z,54.65
2017-08-29T18:04:15.568Z,55.05
2017-08-29T18:06:44.025Z,55.24
2017-08-29T18:09:12.539Z,57.37
2017-08-29T18:11:41.001Z,56.28
2017-08-29T18:14:09.502Z,58.99
2017-08-29T18:16:37.976Z,57.02
2017-08-29T18:19:06.466Z,57.09
2017-08-29T18:21:34.933Z,57.25
2017-08-29T18:24:03.425Z,57.91
2017-08-29T18:26:31.893Z,58.30
2017-08-29T18:29:00.383Z,58.48
2017-08-29T18:31:28.867Z,58.80
2017-08-29T18:33:57.362Z,59.26
2017-08-29T18:36:25.834Z,60.25
2017-08-29T18:38:54.267Z,59.90
2017-08-29T18:41:22.742Z,60.00
2017-08-29T18:43:51.172Z,60.06
2017-08-29T18:46:19.629Z,60.39
2017-08-29T18:48:48.147Z,61.18
2017-08-29T18:51:16.731Z,61.56
2017-08-29T18:53:45.163Z,62.14
2017-08-29T18:56:13.688Z,62.31
2017-08-29T18:58:42.145Z,62.56
2017-08-29T19:01:10.594Z,62.73
2017-08-29T19:03:39.066Z,62.81
2017-08-29T19:06:07.613Z,63.54
2017-08-29T19:08:36.055Z,63.73
2017-08-29T19:11:04.505Z,65.67
2017-08-29T19:13:32.947Z,65.71
2017-08-29T19:16:01.449Z,65.64
2017-08-29T19:18:29.890Z,66.54
2017-08-29T19:20:58.341Z,68.09
2017-08-29T19:23:26.803Z,69.19
2017-08-29T19:25:55.232Z,68.83
2017-08-29T19:28:23.754Z,69.75
2017-08-29T19:30:52.222Z,70.08
2017-08-29T19:33:20.662Z,69.49
2017-08-29T19:35:49.188Z,70.41
2017-08-29T19:38:17.687Z,69.44
2017-08-29T19:40:46.167Z,69.25
2017-08-29T19:43:14.657Z,70.32
2017-08-29T19:45:43.097Z,71.85
2017-08-29T19:48:11.561Z,71.99
2017-08-29T19:50:40.086Z,72.64
2017-08-29T19:53:08.655Z,72.72
2017-08-29T19:55:37.155Z,73.36
2017-08-29T19:58:05.641Z,73.44
2017-08-29T20:00:34.100Z,73.63
2017-08-29T20:03:02.596Z,73.87
2017-08-29T20:05:31.067Z,73.09
2017-08-29T20:07:59.551Z,73.99
2017-08-29T20:10:28.156Z,73.98
2017-08-29T20:12:56.596Z,73.71
2017-08-29T20:15:25.104Z,73.10
2017-08-29T20:17:53.602Z,73.78
2017-08-29T20:20:22.056Z,72.89
2017-08-29T20:22:50.487Z,73.18
2017-08-29T20:25:18.935Z,73.09
2017-08-29T20:27:47.420Z,74.18
2017-08-29T20:30:15.904Z,73.98
2017-08-29T20:32:44.376Z,73.64
2017-08-29T20:35:12.959Z,74.39
2017-08-29T20:37:41.397Z,74.46
2017-08-29T20:40:09.835Z,74.92
2017-08-29T20:42:38.305Z,74.76
2017-08-29T20:45:06.749Z,74.71
2017-08-29T20:47:35.262Z,74.73
2017-08-29T20:50:03.752Z,75.04
2017-08-29T20:52:32.232Z,74.53
2017-08-29T20:55:00.723Z,74.76
2017-08-29T20:57:29.184Z,74.78
2017-08-29T20:59:57.680Z,74.90
2017-08-29T21:02:26.155Z,75.59
2017-08-29T21:04:54.644Z,76.39
2017-08-29T21:07:23.109Z,75.76
2017-08-29T21:09:51.557Z,75.77
2017-08-29T21:12:20.078Z,75.80
2017-08-29T21:14:48.568Z,76.45
2017-08-29T21:17:17.052Z,76.24
2017-08-29T21:19:45.547Z,76.11
2017-08-29T21:22:14.016Z,75.69
2017-08-29T21:24:42.500Z,75.27
2017-08-29T21:27:10.952Z,74.72
2017-08-29T21:29:39.464Z,75.19
2017-08-29T21:32:07.939Z,75.11
2017-08-29T21:34:36.364Z,75.16
2017-08-29T21:37:04.921Z,75.37
2017-08-29T21:39:33.383Z,75.03
2017-08-29T21:42:01.823Z,75.97
2017-08-29T21:44:30.298Z,75.34
2017-08-29T21:46:58.841Z,75.16
2017-08-29T21:49:27.313Z,75.89
2017-08-29T21:51:55.749Z,76.31
2017-08-29T21:54:24.220Z,76.36
2017-08-29T21:56:52.755Z,75.99
2017-08-29T21:59:21.222Z,76.25
2017-08-29T22:01:49.661Z,76.32
2017-08-29T22:04:18.107Z,75.72
2017-08-29T22:06:46.600Z,76.82
2017-08-29T22:09:15.064Z,75.47
2017-08-29T22:11:43.486Z,76.59
2017-08-29T22:14:11.946Z,76.03
2017-08-29T22:16:40.377Z,75.74
2017-08-29T22:19:08.892Z,75.62
2017-08-29T22:21:37.376Z,76.00
2017-08-29T22:24:05.858Z,75.61
2017-08-29T22:26:34.336Z,76.74
2017-08-29T22:29:02.773Z,76.99
2017-08-29T22:31:31.299Z,76.58
2017-08-29T22:33:59.779Z,76.56
2017-08-29T22:36:28.221Z,76.66
2017-08-29T22:38:56.748Z,76.65
2017-08-29T22:41:25.228Z,76.35
2017-08-29T22:43:53.722Z,76.83
2017-08-29T22:46:22.159Z,77.58
2017-08-29T22:48:50.612Z,77.65
2017-08-29T22:51:19.157Z,78.73
2017-08-29T22:53:47.649Z,78.73
2017-08-29T22:56:16.120Z,78.45
2017-08-29T22:58:44.576Z,79.40
2017-08-29T23:01:12.999Z,77.92
2017-08-29T23:03:41.472Z,79.09
2017-08-29T23:06:09.961Z,79.56
2017-08-29T23:08:38.428Z,79.72
2017-08-29T23:11:06.894Z,79.28
2017-08-29T23:13:35.392Z,78.60
2017-08-29T23:16:03.853Z,78.28
2017-08-29T23:18:32.366Z,78.13
2017-08-29T23:21:00.827Z,78.13
2017-08-29T23:23:29.265Z,78.12
2017-08-29T23:25:57.720Z,78.16
2017-08-29T23:28:26.156Z,77.88
2017-08-29T23:30:54.629Z,78.79
2017-08-29T23:33:23.864Z,79.04
2017-08-29T23:35:52.354Z,79.32
2017-08-29T23:38:20.778Z,78.51
2017-08-29T23:40:49.237Z,78.97
2017-08-29T23:43:17.700Z,79.51
2017-08-29T23:45:46.182Z,78.71
2017-08-29T23:48:14.647Z,80.18
2017-08-29T23:50:43.137Z,80.40
2017-08-29T23:53:11.582Z,80.27
2017-08-29T23:55:40.109Z,81.41
2017-08-29T23:58:08.580Z,81.21
